sensor_id;sensor_type;location;lat;lon;timestamp;temperature;humidity
33580;DHT22;19909;43.644;-79.438;2022-07-26T00:01:01;20.80;52.00
33580;DHT22;19909;43.644;-79.438;2022-07-26T00:03:27;20.80;52.00
33580;DHT22;19909;43.644;-79.438;2022-07-26T00:05:53;20.80;52.00
33580;DHT22;19909;43.644;-79.438;2022-07-26T00:08:19;20.80;52.00
33580;DHT22;19909;43.644;-79.438;2022-07-26T00:10:48;20.80;52.00
33580;DHT22;19909;43.644;-79.438;2022-07-26T00:13:16;20.80;52.00
33580;DHT22;19909;43.644;-79.438;2022-07-26T00:15:44;20.80;51.90
33580;DHT22;19909;43.644;-79.438;2022-07-26T00:18:10;20.80;51.90
33580;DHT22;19909;43.644;-79.438;2022-07-26T00:20:37;20.80;51.90
33580;DHT22;19909;43.644;-79.438;2022-07-26T00:23:03;20.80;51.90
33580;DHT22;19909;43.644;-79.438;2022-07-26T00:25:29;20.80;51.80
33580;DHT22;19909;43.644;-79.438;2022-07-26T00:27:56;20.80;51.80
33580;DHT22;19909;43.644;-79.438;2022-07-26T00:30:22;20.80;51.80
33580;DHT22;19909;43.644;-79.438;2022-07-26T00:32:49;20.80;51.80
33580;DHT22;19909;43.644;-79.438;2022-07-26T00:35:15;20.80;51.80
33580;DHT22;19909;43.644;-79.438;2022-07-26T00:37:41;20.80;51.80
33580;DHT22;19909;43.644;-79.438;2022-07-26T00:40:08;20.80;51.90
33580;DHT22;19909;43.644;-79.438;2022-07-26T00:42:34;20.80;51.80
33580;DHT22;19909;43.644;-79.438;2022-07-26T00:45:05;20.80;51.80
33580;DHT22;19909;43.644;-79.438;2022-07-26T00:47:32;20.80;51.80
33580;DHT22;19909;43.644;-79.438;2022-07-26T00:49:59;20.80;51.80
33580;DHT22;19909;43.644;-79.438;2022-07-26T00:52:25;20.80;51.80
33580;DHT22;19909;43.644;-79.438;2022-07-26T00:54:52;20.80;51.80
33580;DHT22;19909;43.644;-79.438;2022-07-26T00:57:22;20.80;51.70
33580;DHT22;19909;43.644;-79.438;2022-07-26T00:59:49;20.80;51.80
33580;DHT22;19909;43.644;-79.438;2022-07-26T01:02:15;20.80;51.70
33580;DHT22;19909;43.644;-79.438;2022-07-26T01:04:42;20.80;51.70
33580;DHT22;19909;43.644;-79.438;2022-07-26T01:07:09;20.80;51.70
33580;DHT22;19909;43.644;-79.438;2022-07-26T01:09:37;20.80;51.70
33580;DHT22;19909;43.644;-79.438;2022-07-26T01:12:04;20.80;51.70
33580;DHT22;19909;43.644;-79.438;2022-07-26T01:14:30;20.80;51.70
33580;DHT22;19909;43.644;-79.438;2022-07-26T01:16:56;20.80;51.70
33580;DHT22;19909;43.644;-79.438;2022-07-26T01:19:22;20.80;51.70
33580;DHT22;19909;43.644;-79.438;2022-07-26T01:21:50;20.80;51.70
33580;DHT22;19909;43.644;-79.438;2022-07-26T01:24:17;20.80;52.00
33580;DHT22;19909;43.644;-79.438;2022-07-26T01:26:44;20.80;52.20
33580;DHT22;19909;43.644;-79.438;2022-07-26T01:29:10;20.80;52.20
33580;DHT22;19909;43.644;-79.438;2022-07-26T01:31:36;20.80;52.20
33580;DHT22;19909;43.644;-79.438;2022-07-26T01:34:02;20.80;52.10
33580;DHT22;19909;43.644;-79.438;2022-07-26T01:36:29;20.80;52.10
33580;DHT22;19909;43.644;-79.438;2022-07-26T01:38:55;20.80;52.20
33580;DHT22;19909;43.644;-79.438;2022-07-26T01:41:21;20.80;52.10
33580;DHT22;19909;43.644;-79.438;2022-07-26T01:43:48;20.80;52.00
33580;DHT22;19909;43.644;-79.438;2022-07-26T01:46:14;20.80;52.00
33580;DHT22;19909;43.644;-79.438;2022-07-26T01:48:41;20.80;52.00
33580;DHT22;19909;43.644;-79.438;2022-07-26T01:51:07;20.80;52.00
33580;DHT22;19909;43.644;-79.438;2022-07-26T01:53:33;20.80;52.00
33580;DHT22;19909;43.644;-79.438;2022-07-26T01:55:59;20.80;52.00
33580;DHT22;19909;43.644;-79.438;2022-07-26T01:58:26;20.80;52.00
33580;DHT22;19909;43.644;-79.438;2022-07-26T02:00:52;20.80;51.90
33580;DHT22;19909;43.644;-79.438;2022-07-26T02:03:19;20.80;51.90
33580;DHT22;19909;43.644;-79.438;2022-07-26T02:05:45;20.80;51.90
33580;DHT22;19909;43.644;-79.438;2022-07-26T02:08:11;20.80;51.90
33580;DHT22;19909;43.644;-79.438;2022-07-26T02:10:38;20.80;51.80
33580;DHT22;19909;43.644;-79.438;2022-07-26T02:13:22;20.80;51.80
33580;DHT22;19909;43.644;-79.438;2022-07-26T02:15:48;20.80;51.80
33580;DHT22;19909;43.644;-79.438;2022-07-26T02:18:15;20.80;51.80
33580;DHT22;19909;43.644;-79.438;2022-07-26T02:20:41;20.80;51.80
33580;DHT22;19909;43.644;-79.438;2022-07-26T02:23:08;20.80;51.70
33580;DHT22;19909;43.644;-79.438;2022-07-26T02:25:34;20.80;51.70
33580;DHT22;19909;43.644;-79.438;2022-07-26T02:28:00;20.80;51.70
33580;DHT22;19909;43.644;-79.438;2022-07-26T02:30:27;20.80;51.70
33580;DHT22;19909;43.644;-79.438;2022-07-26T02:32:54;20.80;51.70
33580;DHT22;19909;43.644;-79.438;2022-07-26T02:35:20;20.80;51.70
33580;DHT22;19909;43.644;-79.438;2022-07-26T02:37:46;20.80;51.60
33580;DHT22;19909;43.644;-79.438;2022-07-26T02:40:12;20.80;51.70
33580;DHT22;19909;43.644;-79.438;2022-07-26T02:42:38;20.80;51.60
33580;DHT22;19909;43.644;-79.438;2022-07-26T02:45:05;20.80;51.70
33580;DHT22;19909;43.644;-79.438;2022-07-26T02:47:31;20.80;51.60
33580;DHT22;19909;43.644;-79.438;2022-07-26T02:49:58;20.80;51.60
33580;DHT22;19909;43.644;-79.438;2022-07-26T02:52:24;20.80;51.60
33580;DHT22;19909;43.644;-79.438;2022-07-26T02:54:51;20.80;51.50
33580;DHT22;19909;43.644;-79.438;2022-07-26T02:57:17;20.80;51.50
33580;DHT22;19909;43.644;-79.438;2022-07-26T02:59:43;20.80;51.50
33580;DHT22;19909;43.644;-79.438;2022-07-26T03:02:09;20.80;51.50
33580;DHT22;19909;43.644;-79.438;2022-07-26T03:04:35;20.80;51.50
33580;DHT22;19909;43.644;-79.438;2022-07-26T03:07:02;20.80;51.50
33580;DHT22;19909;43.644;-79.438;2022-07-26T03:09:28;20.80;51.50
33580;DHT22;19909;43.644;-79.438;2022-07-26T03:11:54;20.80;51.50
33580;DHT22;19909;43.644;-79.438;2022-07-26T03:14:20;20.80;51.50
33580;DHT22;19909;43.644;-79.438;2022-07-26T03:16:46;20.70;51.40
33580;DHT22;19909;43.644;-79.438;2022-07-26T03:19:13;20.70;51.50
33580;DHT22;19909;43.644;-79.438;2022-07-26T03:21:39;20.70;51.40
33580;DHT22;19909;43.644;-79.438;2022-07-26T03:24:05;20.70;51.40
33580;DHT22;19909;43.644;-79.438;2022-07-26T03:26:31;20.80;51.50
33580;DHT22;19909;43.644;-79.438;2022-07-26T03:28:58;20.80;51.40
33580;DHT22;19909;43.644;-79.438;2022-07-26T03:31:24;20.70;51.40
33580;DHT22;19909;43.644;-79.438;2022-07-26T03:33:50;20.80;51.50
33580;DHT22;19909;43.644;-79.438;2022-07-26T03:36:16;20.80;51.50
33580;DHT22;19909;43.644;-79.438;2022-07-26T03:38:42;20.70;51.80
33580;DHT22;19909;43.644;-79.438;2022-07-26T03:41:08;20.70;51.50
33580;DHT22;19909;43.644;-79.438;2022-07-26T03:43:35;20.80;52.10
33580;DHT22;19909;43.644;-79.438;2022-07-26T03:46:01;20.70;51.50
33580;DHT22;19909;43.644;-79.438;2022-07-26T03:48:27;20.70;51.50
33580;DHT22;19909;43.644;-79.438;2022-07-26T03:50:53;20.70;51.60
33580;DHT22;19909;43.644;-79.438;2022-07-26T03:53:20;20.80;51.60
33580;DHT22;19909;43.644;-79.438;2022-07-26T03:55:46;20.70;51.60
33580;DHT22;19909;43.644;-79.438;2022-07-26T03:58:31;20.80;51.60
33580;DHT22;19909;43.644;-79.438;2022-07-26T04:00:57;20.80;51.70
33580;DHT22;19909;43.644;-79.438;2022-07-26T04:03:23;20.80;51.70
33580;DHT22;19909;43.644;-79.438;2022-07-26T04:05:50;20.80;51.80
33580;DHT22;19909;43.644;-79.438;2022-07-26T04:08:16;20.80;51.90
33580;DHT22;19909;43.644;-79.438;2022-07-26T04:10:48;20.80;52.00
33580;DHT22;19909;43.644;-79.438;2022-07-26T04:13:19;20.80;52.60
33580;DHT22;19909;43.644;-79.438;2022-07-26T04:15:45;20.80;52.10
33580;DHT22;19909;43.644;-79.438;2022-07-26T04:18:11;20.80;52.20
33580;DHT22;19909;43.644;-79.438;2022-07-26T04:20:39;20.80;52.20
33580;DHT22;19909;43.644;-79.438;2022-07-26T04:23:05;20.80;52.30
33580;DHT22;19909;43.644;-79.438;2022-07-26T04:25:32;20.80;52.20
33580;DHT22;19909;43.644;-79.438;2022-07-26T04:28:00;20.80;52.20
33580;DHT22;19909;43.644;-79.438;2022-07-26T04:30:26;20.80;52.20
33580;DHT22;19909;43.644;-79.438;2022-07-26T04:32:53;20.80;52.20
33580;DHT22;19909;43.644;-79.438;2022-07-26T04:35:19;20.80;52.30
33580;DHT22;19909;43.644;-79.438;2022-07-26T04:37:45;20.80;52.20
33580;DHT22;19909;43.644;-79.438;2022-07-26T04:40:17;20.80;52.10
33580;DHT22;19909;43.644;-79.438;2022-07-26T04:42:44;20.80;52.10
33580;DHT22;19909;43.644;-79.438;2022-07-26T04:45:11;20.90;52.10
33580;DHT22;19909;43.644;-79.438;2022-07-26T04:47:41;20.90;52.10
33580;DHT22;19909;43.644;-79.438;2022-07-26T04:50:08;20.90;52.10
33580;DHT22;19909;43.644;-79.438;2022-07-26T04:52:35;20.80;52.00
33580;DHT22;19909;43.644;-79.438;2022-07-26T04:55:03;20.80;52.00
33580;DHT22;19909;43.644;-79.438;2022-07-26T04:57:29;20.80;52.00
33580;DHT22;19909;43.644;-79.438;2022-07-26T04:59:56;20.80;52.00
33580;DHT22;19909;43.644;-79.438;2022-07-26T05:02:22;20.90;52.00
33580;DHT22;19909;43.644;-79.438;2022-07-26T05:04:48;20.90;52.00
33580;DHT22;19909;43.644;-79.438;2022-07-26T05:07:14;20.80;51.90
33580;DHT22;19909;43.644;-79.438;2022-07-26T05:09:40;20.80;52.00
33580;DHT22;19909;43.644;-79.438;2022-07-26T05:12:07;20.80;52.00
33580;DHT22;19909;43.644;-79.438;2022-07-26T05:14:34;20.90;51.90
33580;DHT22;19909;43.644;-79.438;2022-07-26T05:17:02;20.90;51.90
33580;DHT22;19909;43.644;-79.438;2022-07-26T05:19:29;20.90;51.90
33580;DHT22;19909;43.644;-79.438;2022-07-26T05:21:55;20.90;51.80
33580;DHT22;19909;43.644;-79.438;2022-07-26T05:24:21;20.90;51.80
33580;DHT22;19909;43.644;-79.438;2022-07-26T05:26:47;20.90;51.80
33580;DHT22;19909;43.644;-79.438;2022-07-26T05:29:13;20.90;51.90
33580;DHT22;19909;43.644;-79.438;2022-07-26T05:31:39;20.90;51.80
33580;DHT22;19909;43.644;-79.438;2022-07-26T05:34:06;20.90;51.90
33580;DHT22;19909;43.644;-79.438;2022-07-26T05:36:33;20.90;51.80
33580;DHT22;19909;43.644;-79.438;2022-07-26T05:38:59;20.90;51.80
33580;DHT22;19909;43.644;-79.438;2022-07-26T05:41:26;20.90;51.70
33580;DHT22;19909;43.644;-79.438;2022-07-26T05:43:52;20.90;51.80
33580;DHT22;19909;43.644;-79.438;2022-07-26T05:46:18;20.90;51.80
33580;DHT22;19909;43.644;-79.438;2022-07-26T05:48:44;20.90;51.70
33580;DHT22;19909;43.644;-79.438;2022-07-26T05:51:10;20.90;51.60
33580;DHT22;19909;43.644;-79.438;2022-07-26T05:53:37;20.90;51.60
33580;DHT22;19909;43.644;-79.438;2022-07-26T05:56:04;20.90;51.60
33580;DHT22;19909;43.644;-79.438;2022-07-26T05:58:31;20.90;51.60
33580;DHT22;19909;43.644;-79.438;2022-07-26T06:00:57;20.90;51.60
33580;DHT22;19909;43.644;-79.438;2022-07-26T06:03:23;20.90;51.60
33580;DHT22;19909;43.644;-79.438;2022-07-26T06:05:55;21.00;51.70
33580;DHT22;19909;43.644;-79.438;2022-07-26T06:08:23;20.90;51.60
33580;DHT22;19909;43.644;-79.438;2022-07-26T06:10:50;20.90;51.70
33580;DHT22;19909;43.644;-79.438;2022-07-26T06:13:17;21.00;51.70
33580;DHT22;19909;43.644;-79.438;2022-07-26T06:15:44;21.00;51.70
33580;DHT22;19909;43.644;-79.438;2022-07-26T06:18:11;20.90;51.70
33580;DHT22;19909;43.644;-79.438;2022-07-26T06:20:39;20.90;51.70
33580;DHT22;19909;43.644;-79.438;2022-07-26T06:23:05;20.90;51.60
33580;DHT22;19909;43.644;-79.438;2022-07-26T06:25:32;20.90;51.60
33580;DHT22;19909;43.644;-79.438;2022-07-26T06:27:58;21.00;51.70
33580;DHT22;19909;43.644;-79.438;2022-07-26T06:30:24;21.00;51.70
33580;DHT22;19909;43.644;-79.438;2022-07-26T06:32:50;20.90;51.60
33580;DHT22;19909;43.644;-79.438;2022-07-26T06:35:16;21.00;51.70
33580;DHT22;19909;43.644;-79.438;2022-07-26T06:37:42;20.90;51.50
33580;DHT22;19909;43.644;-79.438;2022-07-26T06:40:09;20.90;51.50
33580;DHT22;19909;43.644;-79.438;2022-07-26T06:42:36;20.90;51.50
33580;DHT22;19909;43.644;-79.438;2022-07-26T06:45:03;20.90;51.50
33580;DHT22;19909;43.644;-79.438;2022-07-26T06:47:30;20.90;51.50
33580;DHT22;19909;43.644;-79.438;2022-07-26T06:49:56;20.90;51.50
33580;DHT22;19909;43.644;-79.438;2022-07-26T06:52:22;20.90;51.50
33580;DHT22;19909;43.644;-79.438;2022-07-26T06:54:49;20.90;51.40
33580;DHT22;19909;43.644;-79.438;2022-07-26T06:57:15;20.90;51.40
33580;DHT22;19909;43.644;-79.438;2022-07-26T06:59:41;20.90;51.40
33580;DHT22;19909;43.644;-79.438;2022-07-26T07:02:07;20.90;51.40
33580;DHT22;19909;43.644;-79.438;2022-07-26T07:04:34;20.90;51.40
33580;DHT22;19909;43.644;-79.438;2022-07-26T07:07:00;20.90;51.40
33580;DHT22;19909;43.644;-79.438;2022-07-26T07:09:34;20.90;51.30
33580;DHT22;19909;43.644;-79.438;2022-07-26T07:12:04;20.90;51.30
33580;DHT22;19909;43.644;-79.438;2022-07-26T07:14:31;20.90;51.30
33580;DHT22;19909;43.644;-79.438;2022-07-26T07:16:58;20.90;51.30
33580;DHT22;19909;43.644;-79.438;2022-07-26T07:19:24;20.90;51.30
33580;DHT22;19909;43.644;-79.438;2022-07-26T07:21:51;20.80;51.20
33580;DHT22;19909;43.644;-79.438;2022-07-26T07:24:18;20.90;51.30
33580;DHT22;19909;43.644;-79.438;2022-07-26T07:26:45;20.90;51.30
33580;DHT22;19909;43.644;-79.438;2022-07-26T07:29:11;20.80;51.30
33580;DHT22;19909;43.644;-79.438;2022-07-26T07:31:42;20.90;51.30
33580;DHT22;19909;43.644;-79.438;2022-07-26T07:34:10;20.90;51.20
33580;DHT22;19909;43.644;-79.438;2022-07-26T07:36:36;20.90;51.10
33580;DHT22;19909;43.644;-79.438;2022-07-26T07:39:02;20.80;51.20
33580;DHT22;19909;43.644;-79.438;2022-07-26T07:41:29;20.80;51.10
33580;DHT22;19909;43.644;-79.438;2022-07-26T07:43:55;20.90;51.10
33580;DHT22;19909;43.644;-79.438;2022-07-26T07:46:21;20.80;51.00
33580;DHT22;19909;43.644;-79.438;2022-07-26T07:48:48;20.80;51.00
33580;DHT22;19909;43.644;-79.438;2022-07-26T07:51:14;20.80;51.00
33580;DHT22;19909;43.644;-79.438;2022-07-26T07:53:40;20.80;51.20
33580;DHT22;19909;43.644;-79.438;2022-07-26T07:56:06;20.80;50.90
33580;DHT22;19909;43.644;-79.438;2022-07-26T07:58:33;20.80;51.00
33580;DHT22;19909;43.644;-79.438;2022-07-26T08:00:59;20.80;51.00
33580;DHT22;19909;43.644;-79.438;2022-07-26T08:03:25;20.80;51.00
33580;DHT22;19909;43.644;-79.438;2022-07-26T08:05:51;20.80;51.00
33580;DHT22;19909;43.644;-79.438;2022-07-26T08:08:19;20.80;51.60
33580;DHT22;19909;43.644;-79.438;2022-07-26T08:10:45;20.80;51.00
33580;DHT22;19909;43.644;-79.438;2022-07-26T08:13:11;20.80;51.00
33580;DHT22;19909;43.644;-79.438;2022-07-26T08:15:37;20.80;50.90
33580;DHT22;19909;43.644;-79.438;2022-07-26T08:18:04;20.80;51.00
33580;DHT22;19909;43.644;-79.438;2022-07-26T08:20:30;20.80;50.90
33580;DHT22;19909;43.644;-79.438;2022-07-26T08:22:56;20.80;50.90
33580;DHT22;19909;43.644;-79.438;2022-07-26T08:25:22;20.80;50.80
33580;DHT22;19909;43.644;-79.438;2022-07-26T08:27:48;20.80;50.80
33580;DHT22;19909;43.644;-79.438;2022-07-26T08:30:15;20.80;50.80
33580;DHT22;19909;43.644;-79.438;2022-07-26T08:32:41;20.80;50.80
33580;DHT22;19909;43.644;-79.438;2022-07-26T08:35:07;20.80;50.70
33580;DHT22;19909;43.644;-79.438;2022-07-26T08:37:34;20.80;50.80
33580;DHT22;19909;43.644;-79.438;2022-07-26T08:40:00;20.80;50.70
33580;DHT22;19909;43.644;-79.438;2022-07-26T08:42:26;20.80;50.70
33580;DHT22;19909;43.644;-79.438;2022-07-26T08:44:52;20.80;50.70
33580;DHT22;19909;43.644;-79.438;2022-07-26T08:47:20;20.70;50.70
33580;DHT22;19909;43.644;-79.438;2022-07-26T08:49:47;20.80;50.70
33580;DHT22;19909;43.644;-79.438;2022-07-26T08:52:14;20.80;50.70
33580;DHT22;19909;43.644;-79.438;2022-07-26T08:54:48;20.70;50.70
33580;DHT22;19909;43.644;-79.438;2022-07-26T08:57:16;20.70;50.60
33580;DHT22;19909;43.644;-79.438;2022-07-26T08:59:42;20.70;50.70
33580;DHT22;19909;43.644;-79.438;2022-07-26T09:02:10;20.70;50.70
33580;DHT22;19909;43.644;-79.438;2022-07-26T09:04:43;20.70;50.60
33580;DHT22;19909;43.644;-79.438;2022-07-26T09:07:16;20.70;50.70
33580;DHT22;19909;43.644;-79.438;2022-07-26T09:10:03;20.70;50.60
33580;DHT22;19909;43.644;-79.438;2022-07-26T09:12:30;20.70;50.60
33580;DHT22;19909;43.644;-79.438;2022-07-26T09:14:58;20.70;50.50
33580;DHT22;19909;43.644;-79.438;2022-07-26T09:17:37;20.70;50.50
33580;DHT22;19909;43.644;-79.438;2022-07-26T09:20:14;20.70;50.50
33580;DHT22;19909;43.644;-79.438;2022-07-26T09:22:56;20.70;50.60
33580;DHT22;19909;43.644;-79.438;2022-07-26T09:25:24;20.70;50.70
33580;DHT22;19909;43.644;-79.438;2022-07-26T09:27:51;20.70;50.60
33580;DHT22;19909;43.644;-79.438;2022-07-26T09:30:18;20.70;50.60
33580;DHT22;19909;43.644;-79.438;2022-07-26T09:33:02;20.70;50.60
33580;DHT22;19909;43.644;-79.438;2022-07-26T09:35:35;20.70;50.50
33580;DHT22;19909;43.644;-79.438;2022-07-26T09:38:14;20.70;50.50
33580;DHT22;19909;43.644;-79.438;2022-07-26T09:40:41;20.60;50.50
33580;DHT22;19909;43.644;-79.438;2022-07-26T09:43:07;20.70;50.60
33580;DHT22;19909;43.644;-79.438;2022-07-26T09:45:34;20.70;50.50
33580;DHT22;19909;43.644;-79.438;2022-07-26T09:48:02;20.60;50.50
33580;DHT22;19909;43.644;-79.438;2022-07-26T09:50:31;20.60;50.40
33580;DHT22;19909;43.644;-79.438;2022-07-26T09:53:07;20.60;50.50
33580;DHT22;19909;43.644;-79.438;2022-07-26T09:58:14;20.60;50.50
33580;DHT22;19909;43.644;-79.438;2022-07-26T10:00:41;20.60;50.40
33580;DHT22;19909;43.644;-79.438;2022-07-26T10:03:07;20.60;50.40
33580;DHT22;19909;43.644;-79.438;2022-07-26T10:05:34;20.60;50.40
33580;DHT22;19909;43.644;-79.438;2022-07-26T10:08:01;20.60;50.50
33580;DHT22;19909;43.644;-79.438;2022-07-26T10:10:31;20.60;50.50
33580;DHT22;19909;43.644;-79.438;2022-07-26T10:12:58;20.60;50.40
33580;DHT22;19909;43.644;-79.438;2022-07-26T10:15:45;20.50;50.30
33580;DHT22;19909;43.644;-79.438;2022-07-26T10:23:49;20.50;50.40
33580;DHT22;19909;43.644;-79.438;2022-07-26T10:32:12;20.50;50.50
33580;DHT22;19909;43.644;-79.438;2022-07-26T10:34:39;20.60;50.40
33580;DHT22;19909;43.644;-79.438;2022-07-26T10:37:10;20.50;50.40
33580;DHT22;19909;43.644;-79.438;2022-07-26T10:39:44;20.50;50.40
33580;DHT22;19909;43.644;-79.438;2022-07-26T10:42:11;20.50;50.40
33580;DHT22;19909;43.644;-79.438;2022-07-26T10:44:39;20.50;50.40
33580;DHT22;19909;43.644;-79.438;2022-07-26T10:47:09;20.50;50.50
33580;DHT22;19909;43.644;-79.438;2022-07-26T10:49:37;20.50;50.40
33580;DHT22;19909;43.644;-79.438;2022-07-26T10:52:09;20.50;50.40
33580;DHT22;19909;43.644;-79.438;2022-07-26T10:57:37;20.50;50.40
33580;DHT22;19909;43.644;-79.438;2022-07-26T11:00:16;20.50;50.40
33580;DHT22;19909;43.644;-79.438;2022-07-26T11:02:45;20.50;50.50
33580;DHT22;19909;43.644;-79.438;2022-07-26T11:05:15;20.50;50.40
33580;DHT22;19909;43.644;-79.438;2022-07-26T11:08:01;20.50;50.50
33580;DHT22;19909;43.644;-79.438;2022-07-26T11:10:39;20.50;50.60
33580;DHT22;19909;43.644;-79.438;2022-07-26T11:15:36;20.60;50.70
33580;DHT22;19909;43.644;-79.438;2022-07-26T11:18:15;20.50;50.70
33580;DHT22;19909;43.644;-79.438;2022-07-26T11:20:44;20.50;50.80
33580;DHT22;19909;43.644;-79.438;2022-07-26T11:23:26;20.50;50.80
33580;DHT22;19909;43.644;-79.438;2022-07-26T11:26:07;20.50;50.90
33580;DHT22;19909;43.644;-79.438;2022-07-26T11:31:16;20.50;51.00
33580;DHT22;19909;43.644;-79.438;2022-07-26T11:33:44;20.50;51.20
33580;DHT22;19909;43.644;-79.438;2022-07-26T11:36:14;20.50;51.10
33580;DHT22;19909;43.644;-79.438;2022-07-26T11:41:12;20.50;51.20
33580;DHT22;19909;43.644;-79.438;2022-07-26T11:43:41;20.50;51.20
33580;DHT22;19909;43.644;-79.438;2022-07-26T11:46:07;20.50;51.10
33580;DHT22;19909;43.644;-79.438;2022-07-26T11:48:33;20.60;51.20
33580;DHT22;19909;43.644;-79.438;2022-07-26T11:51:22;20.50;51.10
33580;DHT22;19909;43.644;-79.438;2022-07-26T11:53:50;20.50;51.10
33580;DHT22;19909;43.644;-79.438;2022-07-26T11:56:18;20.50;51.10
33580;DHT22;19909;43.644;-79.438;2022-07-26T11:58:47;20.50;51.60
33580;DHT22;19909;43.644;-79.438;2022-07-26T12:01:15;20.50;51.10
33580;DHT22;19909;43.644;-79.438;2022-07-26T12:03:43;20.50;51.10
33580;DHT22;19909;43.644;-79.438;2022-07-26T12:06:13;20.50;51.10
33580;DHT22;19909;43.644;-79.438;2022-07-26T12:11:15;20.50;51.10
33580;DHT22;19909;43.644;-79.438;2022-07-26T12:14:00;20.50;51.10
33580;DHT22;19909;43.644;-79.438;2022-07-26T12:16:37;20.50;51.00
33580;DHT22;19909;43.644;-79.438;2022-07-26T12:19:05;20.50;51.00
33580;DHT22;19909;43.644;-79.438;2022-07-26T12:21:45;20.50;50.90
33580;DHT22;19909;43.644;-79.438;2022-07-26T12:24:32;20.50;51.00
33580;DHT22;19909;43.644;-79.438;2022-07-26T12:29:40;20.50;51.00
33580;DHT22;19909;43.644;-79.438;2022-07-26T12:32:22;20.50;51.00
33580;DHT22;19909;43.644;-79.438;2022-07-26T12:35:06;20.50;51.00
33580;DHT22;19909;43.644;-79.438;2022-07-26T12:37:36;20.50;50.90
33580;DHT22;19909;43.644;-79.438;2022-07-26T12:40:08;20.50;51.00
33580;DHT22;19909;43.644;-79.438;2022-07-26T12:42:37;20.50;51.00
33580;DHT22;19909;43.644;-79.438;2022-07-26T12:45:06;20.50;50.90
33580;DHT22;19909;43.644;-79.438;2022-07-26T12:47:38;20.50;50.90
33580;DHT22;19909;43.644;-79.438;2022-07-26T12:50:06;20.50;51.00
33580;DHT22;19909;43.644;-79.438;2022-07-26T12:52:33;20.50;50.80
33580;DHT22;19909;43.644;-79.438;2022-07-26T12:55:00;20.50;50.90
33580;DHT22;19909;43.644;-79.438;2022-07-26T12:57:27;20.50;51.20
33580;DHT22;19909;43.644;-79.438;2022-07-26T12:59:54;20.50;50.80
33580;DHT22;19909;43.644;-79.438;2022-07-26T13:02:21;20.50;50.80
33580;DHT22;19909;43.644;-79.438;2022-07-26T13:04:48;20.50;50.80
33580;DHT22;19909;43.644;-79.438;2022-07-26T13:07:16;20.50;50.70
33580;DHT22;19909;43.644;-79.438;2022-07-26T13:09:44;20.50;50.80
33580;DHT22;19909;43.644;-79.438;2022-07-26T13:12:11;20.40;50.70
33580;DHT22;19909;43.644;-79.438;2022-07-26T13:14:38;20.50;50.80
33580;DHT22;19909;43.644;-79.438;2022-07-26T13:17:06;20.50;50.80
33580;DHT22;19909;43.644;-79.438;2022-07-26T13:19:34;20.50;50.80
33580;DHT22;19909;43.644;-79.438;2022-07-26T13:22:01;20.40;50.70
33580;DHT22;19909;43.644;-79.438;2022-07-26T13:24:29;20.40;50.70
33580;DHT22;19909;43.644;-79.438;2022-07-26T13:26:56;20.40;50.70
33580;DHT22;19909;43.644;-79.438;2022-07-26T13:29:22;20.40;50.70
33580;DHT22;19909;43.644;-79.438;2022-07-26T13:31:50;20.40;50.70
33580;DHT22;19909;43.644;-79.438;2022-07-26T13:34:17;20.40;50.80
33580;DHT22;19909;43.644;-79.438;2022-07-26T13:36:43;20.50;50.70
33580;DHT22;19909;43.644;-79.438;2022-07-26T13:39:10;20.40;50.60
33580;DHT22;19909;43.644;-79.438;2022-07-26T13:41:36;20.40;50.60
33580;DHT22;19909;43.644;-79.438;2022-07-26T13:44:03;20.50;51.30
33580;DHT22;19909;43.644;-79.438;2022-07-26T13:46:29;20.40;50.80
33580;DHT22;19909;43.644;-79.438;2022-07-26T13:48:56;20.40;50.70
33580;DHT22;19909;43.644;-79.438;2022-07-26T13:51:24;20.40;50.80
33580;DHT22;19909;43.644;-79.438;2022-07-26T13:54:11;20.40;50.80
33580;DHT22;19909;43.644;-79.438;2022-07-26T13:56:38;20.40;50.70
33580;DHT22;19909;43.644;-79.438;2022-07-26T13:59:04;20.40;50.70
33580;DHT22;19909;43.644;-79.438;2022-07-26T14:01:31;20.40;50.70
33580;DHT22;19909;43.644;-79.438;2022-07-26T14:03:58;20.40;50.70
33580;DHT22;19909;43.644;-79.438;2022-07-26T14:06:25;20.40;50.70
33580;DHT22;19909;43.644;-79.438;2022-07-26T14:08:52;20.40;50.70
33580;DHT22;19909;43.644;-79.438;2022-07-26T14:11:18;20.40;50.70
33580;DHT22;19909;43.644;-79.438;2022-07-26T14:13:44;20.40;50.60
33580;DHT22;19909;43.644;-79.438;2022-07-26T14:16:10;20.40;50.70
33580;DHT22;19909;43.644;-79.438;2022-07-26T14:18:37;20.40;50.70
33580;DHT22;19909;43.644;-79.438;2022-07-26T14:21:03;20.40;50.70
33580;DHT22;19909;43.644;-79.438;2022-07-26T14:23:30;20.40;50.70
33580;DHT22;19909;43.644;-79.438;2022-07-26T14:25:56;20.40;50.70
33580;DHT22;19909;43.644;-79.438;2022-07-26T14:28:22;20.40;50.60
33580;DHT22;19909;43.644;-79.438;2022-07-26T14:30:49;20.40;50.70
33580;DHT22;19909;43.644;-79.438;2022-07-26T14:33:15;20.40;50.70
33580;DHT22;19909;43.644;-79.438;2022-07-26T14:35:41;20.40;50.70
33580;DHT22;19909;43.644;-79.438;2022-07-26T14:38:09;20.40;50.70
33580;DHT22;19909;43.644;-79.438;2022-07-26T14:40:36;20.40;50.80
33580;DHT22;19909;43.644;-79.438;2022-07-26T14:43:02;20.40;50.80
33580;DHT22;19909;43.644;-79.438;2022-07-26T14:45:29;20.40;50.70
33580;DHT22;19909;43.644;-79.438;2022-07-26T14:47:55;20.40;50.60
33580;DHT22;19909;43.644;-79.438;2022-07-26T14:50:21;20.40;50.70
33580;DHT22;19909;43.644;-79.438;2022-07-26T14:52:51;20.30;50.80
33580;DHT22;19909;43.644;-79.438;2022-07-26T14:55:18;20.40;50.70
33580;DHT22;19909;43.644;-79.438;2022-07-26T14:57:44;20.40;50.70
33580;DHT22;19909;43.644;-79.438;2022-07-26T15:00:13;20.40;50.70
33580;DHT22;19909;43.644;-79.438;2022-07-26T15:02:43;20.40;50.70
33580;DHT22;19909;43.644;-79.438;2022-07-26T15:05:11;20.40;50.70
33580;DHT22;19909;43.644;-79.438;2022-07-26T15:07:39;20.30;50.60
33580;DHT22;19909;43.644;-79.438;2022-07-26T15:10:07;20.40;50.70
33580;DHT22;19909;43.644;-79.438;2022-07-26T15:12:34;20.30;50.60
33580;DHT22;19909;43.644;-79.438;2022-07-26T15:15:01;20.40;50.70
33580;DHT22;19909;43.644;-79.438;2022-07-26T15:17:27;20.40;50.70
33580;DHT22;19909;43.644;-79.438;2022-07-26T15:19:53;20.40;50.70
33580;DHT22;19909;43.644;-79.438;2022-07-26T15:22:19;20.40;50.70
33580;DHT22;19909;43.644;-79.438;2022-07-26T15:24:46;20.30;50.70
33580;DHT22;19909;43.644;-79.438;2022-07-26T15:27:12;20.40;50.70
33580;DHT22;19909;43.644;-79.438;2022-07-26T15:29:38;20.40;50.70
33580;DHT22;19909;43.644;-79.438;2022-07-26T15:32:05;20.30;50.70
33580;DHT22;19909;43.644;-79.438;2022-07-26T15:34:32;20.40;50.80
33580;DHT22;19909;43.644;-79.438;2022-07-26T15:36:58;20.30;50.70